Time;durP1;ratioP1;P1;durP2;ratioP2;P2;SDS_P1;SDS_P2;PMS_P1;PMS_P2;Temp;Humidity;BMP_temperature;BMP_pressure;BME280_temperature;BME280_humidity;BME280_pressure;Samples;Min_cycle;Max_cycle;Signal;HPM_P1;HPM_P2
2022/10/19 00:00:41;;;;;;;7.28;5.80;;;;;;;;;;5122020;28;20226;-69
2022/10/19 00:03:08;;;;;;;8.13;5.38;;;;;;;;;;5121886;28;20187;-69
2022/10/19 00:05:34;;;;;;;6.75;5.45;;;;;;;;;;5122045;28;20198;-68
2022/10/19 00:08:01;;;;;;;6.70;5.30;;;;;;;;;;5121906;28;20495;-68
2022/10/19 00:10:28;;;;;;;6.32;5.68;;;;;;;;;;5122016;28;20195;-68
2022/10/19 00:12:54;;;;;;;6.28;5.68;;;;;;;;;;5122921;28;20520;-68
2022/10/19 00:15:20;;;;;;;8.07;5.35;;;;;;;;;;5125657;28;20195;-68
2022/10/19 00:17:47;;;;;;;12.40;5.28;;;;;;;;;;5125259;28;20210;-68
2022/10/19 00:20:13;;;;;;;5.70;5.28;;;;;;;;;;5125489;28;20199;-68
2022/10/19 00:22:39;;;;;;;5.88;5.10;;;;;;;;;;5125680;28;20198;-68
2022/10/19 00:25:08;;;;;;;6.22;5.18;;;;;;;;;;5125608;28;20199;-68
2022/10/19 00:27:34;;;;;;;5.72;5.22;;;;;;;;;;5125354;28;20227;-68
2022/10/19 00:30:01;;;;;;;9.10;6.13;;;;;;;;;;5125414;28;20227;-68
2022/10/19 00:32:27;;;;;;;9.60;6.18;;;;;;;;;;5125194;28;20198;-68
2022/10/19 00:34:53;;;;;;;7.82;5.85;;;;;;;;;;5125485;28;20214;-68
2022/10/19 00:37:19;;;;;;;8.95;5.47;;;;;;;;;;5125274;28;20206;-68
2022/10/19 00:39:46;;;;;;;9.80;6.40;;;;;;;;;;5125158;28;20195;-68
2022/10/19 00:42:13;;;;;;;8.52;6.35;;;;;;;;;;5125361;28;20219;-68
2022/10/19 00:45:09;;;;;;;7.72;6.93;;;;;;;;;;5125065;28;20205;-68
2022/10/19 00:47:36;;;;;;;9.18;6.00;;;;;;;;;;5062081;28;20430;-68
2022/10/19 00:50:02;;;;;;;8.32;5.80;;;;;;;;;;5109640;28;20195;-68
2022/10/19 00:52:29;;;;;;;11.10;7.25;;;;;;;;;;5124973;28;20494;-68
2022/10/19 00:54:57;;;;;;;12.20;7.65;;;;;;;;;;5124952;28;20384;-68
2022/10/19 00:57:26;;;;;;;10.98;6.72;;;;;;;;;;5124758;28;20263;-68
2022/10/19 00:59:53;;;;;;;10.98;7.05;;;;;;;;;;5124549;28;20203;-68
2022/10/19 01:02:19;;;;;;;17.45;7.90;;;;;;;;;;5125004;28;20223;-68
2022/10/19 01:04:47;;;;;;;17.02;9.57;;;;;;;;;;5124648;28;20210;-68
2022/10/19 01:07:13;;;;;;;15.13;9.65;;;;;;;;;;5124693;28;20220;-68
2022/10/19 01:09:40;;;;;;;12.13;9.05;;;;;;;;;;5124324;28;20386;-68
2022/10/19 01:12:10;;;;;;;14.23;9.35;;;;;;;;;;5124553;28;20207;-68
2022/10/19 01:14:46;;;;;;;12.27;8.88;;;;;;;;;;5124649;28;20199;-68
2022/10/19 01:17:18;;;;;;;12.80;8.20;;;;;;;;;;5124924;28;20493;-68
2022/10/19 01:20:00;;;;;;;13.63;8.60;;;;;;;;;;5124228;28;20420;-68
2022/10/19 01:25:34;;;;;;;22.08;8.50;;;;;;;;;;5081335;28;20399;-68
2022/10/19 01:28:03;;;;;;;16.05;8.80;;;;;;;;;;5123881;28;20222;-68
2022/10/19 01:30:36;;;;;;;17.65;8.38;;;;;;;;;;5124180;28;20195;-68
2022/10/19 01:33:08;;;;;;;16.98;9.15;;;;;;;;;;5124297;27;20189;-68
2022/10/19 01:35:39;;;;;;;16.05;9.52;;;;;;;;;;5124305;28;20195;-68
2022/10/19 01:38:09;;;;;;;17.73;9.43;;;;;;;;;;5123926;27;20203;-69
2022/10/19 01:40:40;;;;;;;12.02;9.35;;;;;;;;;;5123964;28;20194;-69
2022/10/19 01:43:11;;;;;;;24.23;10.68;;;;;;;;;;5123929;28;20195;-69
2022/10/19 01:45:41;;;;;;;30.10;10.73;;;;;;;;;;5123892;28;20203;-69
2022/10/19 01:48:10;;;;;;;21.33;10.88;;;;;;;;;;5123834;28;20540;-69
2022/10/19 01:50:40;;;;;;;16.83;10.45;;;;;;;;;;5123912;28;20198;-69
2022/10/19 01:53:07;;;;;;;20.73;10.60;;;;;;;;;;5123912;28;20195;-69
2022/10/19 01:55:35;;;;;;;21.40;11.18;;;;;;;;;;5123687;28;20202;-69
2022/10/19 01:58:03;;;;;;;19.58;11.27;;;;;;;;;;5123297;28;20203;-69
2022/10/19 02:00:31;;;;;;;23.25;10.93;;;;;;;;;;5123454;27;20419;-69
2022/10/19 02:03:00;;;;;;;23.73;10.85;;;;;;;;;;5123590;28;20580;-69
2022/10/19 02:05:29;;;;;;;16.58;10.55;;;;;;;;;;5123599;28;20199;-69
2022/10/19 02:08:00;;;;;;;22.88;11.35;;;;;;;;;;5123296;28;20201;-69
2022/10/19 02:10:27;;;;;;;18.48;11.32;;;;;;;;;;5123293;28;20201;-69
2022/10/19 02:12:55;;;;;;;24.45;10.68;;;;;;;;;;5123477;28;20359;-69
2022/10/19 02:15:23;;;;;;;15.38;11.13;;;;;;;;;;5123520;28;20195;-69
2022/10/19 02:17:51;;;;;;;20.08;10.63;;;;;;;;;;5123138;28;20394;-69
2022/10/19 02:20:19;;;;;;;24.90;12.75;;;;;;;;;;5123307;28;20202;-69
2022/10/19 02:22:46;;;;;;;23.08;12.07;;;;;;;;;;5123466;28;20217;-69
2022/10/19 02:25:12;;;;;;;18.90;11.90;;;;;;;;;;5123269;28;20211;-69
2022/10/19 02:27:40;;;;;;;24.10;12.27;;;;;;;;;;5122931;28;20451;-69
2022/10/19 02:30:07;;;;;;;21.08;12.52;;;;;;;;;;5123140;28;20199;-69
2022/10/19 02:32:34;;;;;;;20.63;12.90;;;;;;;;;;5123210;28;20379;-69
2022/10/19 02:35:00;;;;;;;18.02;11.20;;;;;;;;;;5122948;28;20199;-69
2022/10/19 02:37:28;;;;;;;17.98;11.68;;;;;;;;;;5122506;27;20210;-69
2022/10/19 02:39:54;;;;;;;17.13;11.98;;;;;;;;;;5122895;28;20210;-69
2022/10/19 02:42:27;;;;;;;17.38;11.52;;;;;;;;;;5122757;28;20225;-69
2022/10/19 02:44:58;;;;;;;16.42;10.88;;;;;;;;;;5122860;28;20199;-69
2022/10/19 02:47:27;;;;;;;19.23;10.75;;;;;;;;;;5122884;28;20268;-69
2022/10/19 02:49:54;;;;;;;17.55;11.85;;;;;;;;;;5122399;28;20390;-69
2022/10/19 02:52:20;;;;;;;21.17;12.63;;;;;;;;;;5122951;28;20205;-69
2022/10/19 02:54:47;;;;;;;25.02;12.88;;;;;;;;;;5122974;28;20199;-67
2022/10/19 02:57:15;;;;;;;16.98;12.82;;;;;;;;;;5123019;27;20513;-67
2022/10/19 02:59:42;;;;;;;20.33;12.90;;;;;;;;;;5122450;28;20429;-67
2022/10/19 03:02:08;;;;;;;26.25;13.88;;;;;;;;;;5122598;27;20218;-68
2022/10/19 03:04:34;;;;;;;25.10;13.70;;;;;;;;;;5122470;28;20202;-68
2022/10/19 03:07:01;;;;;;;24.10;13.90;;;;;;;;;;5122693;28;20195;-68
2022/10/19 03:09:27;;;;;;;20.30;13.35;;;;;;;;;;5122187;28;20224;-68
2022/10/19 03:11:56;;;;;;;22.75;14.50;;;;;;;;;;5122575;28;20190;-69
2022/10/19 03:14:22;;;;;;;25.85;13.13;;;;;;;;;;5122437;28;20205;-68
2022/10/19 03:16:48;;;;;;;19.50;12.75;;;;;;;;;;5122405;28;20454;-68
2022/10/19 03:19:15;;;;;;;18.25;12.55;;;;;;;;;;5122403;28;20202;-68
2022/10/19 03:21:41;;;;;;;26.08;12.98;;;;;;;;;;5122485;28;20215;-68
2022/10/19 03:24:07;;;;;;;25.35;12.82;;;;;;;;;;5122446;28;20195;-68
2022/10/19 03:26:33;;;;;;;17.98;13.45;;;;;;;;;;5122339;28;20525;-68
2022/10/19 03:29:01;;;;;;;18.48;12.80;;;;;;;;;;5122006;28;20222;-68
2022/10/19 03:31:27;;;;;;;23.52;13.85;;;;;;;;;;5122150;28;20202;-68
2022/10/19 03:33:54;;;;;;;20.77;13.32;;;;;;;;;;5122140;28;20220;-68
2022/10/19 03:36:22;;;;;;;18.13;12.07;;;;;;;;;;5122402;28;20389;-68
2022/10/19 03:38:49;;;;;;;17.42;12.93;;;;;;;;;;5121918;28;20493;-68
2022/10/19 03:41:15;;;;;;;21.13;13.02;;;;;;;;;;5122071;28;20195;-68
2022/10/19 03:43:42;;;;;;;21.92;13.38;;;;;;;;;;5122157;28;20221;-68
2022/10/19 03:46:09;;;;;;;30.05;12.88;;;;;;;;;;5121904;28;20195;-68
2022/10/19 03:48:36;;;;;;;24.90;12.02;;;;;;;;;;5124215;28;20227;-69
2022/10/19 03:51:03;;;;;;;18.27;12.77;;;;;;;;;;5126080;28;20203;-68
2022/10/19 03:53:30;;;;;;;16.73;12.85;;;;;;;;;;5126108;28;20199;-68
2022/10/19 03:56:04;;;;;;;21.10;12.27;;;;;;;;;;5126152;28;20248;-68
2022/10/19 03:58:31;;;;;;;22.00;13.50;;;;;;;;;;5125727;27;20202;-68
2022/10/19 04:00:58;;;;;;;15.20;12.50;;;;;;;;;;5125958;28;20207;-68
2022/10/19 04:03:25;;;;;;;22.00;13.65;;;;;;;;;;5125922;28;20226;-68
2022/10/19 04:05:52;;;;;;;18.05;12.90;;;;;;;;;;5125978;27;20501;-68
2022/10/19 04:08:18;;;;;;;19.80;13.25;;;;;;;;;;5125631;28;20567;-68
2022/10/19 04:10:44;;;;;;;22.88;13.30;;;;;;;;;;5125740;28;20316;-68
2022/10/19 04:13:11;;;;;;;21.58;14.02;;;;;;;;;;5125596;28;20191;-68
2022/10/19 04:15:37;;;;;;;19.25;13.55;;;;;;;;;;5125942;28;20494;-68
2022/10/19 04:18:03;;;;;;;18.48;12.55;;;;;;;;;;5125493;27;20201;-68
2022/10/19 04:20:31;;;;;;;18.25;13.48;;;;;;;;;;5125635;28;20199;-68
2022/10/19 04:22:58;;;;;;;15.43;12.25;;;;;;;;;;5125514;28;20219;-68
2022/10/19 04:25:24;;;;;;;17.58;12.15;;;;;;;;;;5125432;28;20199;-68
2022/10/19 04:27:50;;;;;;;15.90;12.55;;;;;;;;;;5125025;28;20291;-68
2022/10/19 04:30:17;;;;;;;14.95;12.02;;;;;;;;;;5125591;28;20203;-68
2022/10/19 04:32:43;;;;;;;15.85;11.65;;;;;;;;;;5125464;28;20543;-68
2022/10/19 04:35:09;;;;;;;14.68;11.05;;;;;;;;;;5125370;27;20195;-68
2022/10/19 04:37:37;;;;;;;12.13;11.02;;;;;;;;;;5124772;28;20203;-68
2022/10/19 04:40:04;;;;;;;14.05;10.85;;;;;;;;;;5125115;28;20229;-68
2022/10/19 04:42:31;;;;;;;17.40;11.18;;;;;;;;;;5124861;28;20215;-68
2022/10/19 04:44:57;;;;;;;13.93;12.20;;;;;;;;;;5125208;28;20195;-68
2022/10/19 04:47:24;;;;;;;16.23;12.02;;;;;;;;;;5125181;28;20199;-68
2022/10/19 04:49:50;;;;;;;13.88;12.38;;;;;;;;;;5124703;28;20202;-68
2022/10/19 04:52:16;;;;;;;14.10;11.32;;;;;;;;;;5124910;28;20206;-68
2022/10/19 04:54:44;;;;;;;15.80;12.32;;;;;;;;;;5124908;28;20545;-68
2022/10/19 04:57:10;;;;;;;17.35;12.30;;;;;;;;;;5124798;28;20207;-68
2022/10/19 04:59:36;;;;;;;17.23;12.10;;;;;;;;;;5124617;28;20195;-68
2022/10/19 05:02:03;;;;;;;19.90;12.38;;;;;;;;;;5124632;28;20215;-68
2022/10/19 05:04:29;;;;;;;17.55;13.10;;;;;;;;;;5124709;28;20195;-68
2022/10/19 05:06:55;;;;;;;24.95;15.57;;;;;;;;;;5124621;28;20203;-68
2022/10/19 05:09:21;;;;;;;20.77;13.40;;;;;;;;;;5124387;28;20202;-68
2022/10/19 05:11:50;;;;;;;18.20;14.23;;;;;;;;;;5124554;28;20195;-68
2022/10/19 05:14:16;;;;;;;19.55;13.50;;;;;;;;;;5124669;28;20196;-68
2022/10/19 05:16:42;;;;;;;21.83;13.20;;;;;;;;;;5124655;28;20272;-68
2022/10/19 05:19:12;;;;;;;18.63;14.13;;;;;;;;;;5123861;28;20502;-68
2022/10/19 05:21:38;;;;;;;17.95;13.40;;;;;;;;;;5123924;28;20195;-68
2022/10/19 05:24:05;;;;;;;19.08;14.18;;;;;;;;;;5123708;28;20214;-68
2022/10/19 05:26:31;;;;;;;23.92;13.90;;;;;;;;;;5124005;28;20202;-68
2022/10/19 05:29:00;;;;;;;18.45;14.10;;;;;;;;;;5123691;28;20222;-71
2022/10/19 05:31:27;;;;;;;20.15;14.52;;;;;;;;;;5123832;28;20209;-71
2022/10/19 05:33:54;;;;;;;20.50;14.65;;;;;;;;;;5123719;28;20191;-71
2022/10/19 05:36:24;;;;;;;16.33;13.38;;;;;;;;;;5123692;28;20195;-71
2022/10/19 05:38:51;;;;;;;17.98;14.10;;;;;;;;;;5123587;28;20209;-71
2022/10/19 05:41:18;;;;;;;16.33;13.90;;;;;;;;;;5123853;28;20486;-71
2022/10/19 05:43:44;;;;;;;13.98;12.48;;;;;;;;;;5123814;28;20218;-71
2022/10/19 05:46:13;;;;;;;19.85;12.93;;;;;;;;;;5123672;28;20195;-71
2022/10/19 05:48:40;;;;;;;17.70;13.63;;;;;;;;;;5123246;28;20195;-71
2022/10/19 05:51:07;;;;;;;13.98;12.20;;;;;;;;;;5123277;28;20202;-72
2022/10/19 05:53:33;;;;;;;18.25;13.20;;;;;;;;;;5123672;28;20382;-72
2022/10/19 05:55:59;;;;;;;21.83;13.90;;;;;;;;;;5123489;28;20394;-72
2022/10/19 05:58:26;;;;;;;16.27;13.15;;;;;;;;;;5123442;28;20202;-72
2022/10/19 06:00:52;;;;;;;15.50;12.85;;;;;;;;;;5123412;28;20201;-72
2022/10/19 06:03:20;;;;;;;19.05;15.35;;;;;;;;;;5123261;28;20215;-69
2022/10/19 06:05:47;;;;;;;17.92;14.13;;;;;;;;;;5122946;28;20268;-57
2022/10/19 06:08:13;;;;;;;16.67;12.88;;;;;;;;;;5109514;27;20212;-58
2022/10/19 06:10:39;;;;;;;17.77;12.70;;;;;;;;;;5115405;28;20222;-58
2022/10/19 06:13:06;;;;;;;15.40;13.13;;;;;;;;;;5117086;27;20198;-59
2022/10/19 06:15:32;;;;;;;23.35;16.08;;;;;;;;;;5117153;28;20207;-59
2022/10/19 06:17:59;;;;;;;18.63;15.55;;;;;;;;;;5111613;28;20434;-58
2022/10/19 06:20:28;;;;;;;21.02;14.05;;;;;;;;;;5110771;28;20211;-57
2022/10/19 06:22:54;;;;;;;23.95;14.32;;;;;;;;;;5113684;28;20387;-58
2022/10/19 06:25:20;;;;;;;22.15;15.10;;;;;;;;;;5117401;28;20233;-58
2022/10/19 06:27:47;;;;;;;18.38;13.73;;;;;;;;;;5115110;28;20223;-58
2022/10/19 06:30:13;;;;;;;21.60;13.70;;;;;;;;;;5113248;28;20377;-58
2022/10/19 06:32:40;;;;;;;16.90;13.98;;;;;;;;;;5110451;28;20210;-58
2022/10/19 06:35:06;;;;;;;20.75;15.85;;;;;;;;;;5113071;28;20585;-58
2022/10/19 06:37:34;;;;;;;22.00;14.43;;;;;;;;;;5113262;28;20233;-58
2022/10/19 06:40:00;;;;;;;22.77;14.57;;;;;;;;;;5113323;28;20207;-58
2022/10/19 06:42:27;;;;;;;23.83;15.48;;;;;;;;;;5112709;27;20424;-58
2022/10/19 06:44:53;;;;;;;18.40;14.55;;;;;;;;;;5112634;28;20211;-58
2022/10/19 06:47:19;;;;;;;30.15;16.17;;;;;;;;;;5112583;28;20541;-58
2022/10/19 06:49:45;;;;;;;22.38;14.60;;;;;;;;;;5113411;28;20504;-57
2022/10/19 06:52:12;;;;;;;20.90;14.40;;;;;;;;;;5111451;27;20208;-57
2022/10/19 06:54:39;;;;;;;18.52;13.98;;;;;;;;;;5115015;28;20217;-58
2022/10/19 06:57:06;;;;;;;19.08;13.23;;;;;;;;;;5115213;28;20215;-58
2022/10/19 06:59:33;;;;;;;20.20;13.23;;;;;;;;;;5114590;28;20211;-58
2022/10/19 07:01:59;;;;;;;19.05;13.80;;;;;;;;;;5114284;28;20211;-58
2022/10/19 07:04:25;;;;;;;16.38;12.75;;;;;;;;;;5115386;28;20230;-58
2022/10/19 07:06:52;;;;;;;15.63;12.40;;;;;;;;;;5114473;28;20545;-58
2022/10/19 07:09:18;;;;;;;18.95;12.57;;;;;;;;;;5113538;28;20211;-58
2022/10/19 07:11:46;;;;;;;21.25;13.13;;;;;;;;;;5114886;28;20245;-58
2022/10/19 07:14:13;;;;;;;16.42;12.52;;;;;;;;;;5115272;28;20206;-58
2022/10/19 07:16:39;;;;;;;18.23;12.10;;;;;;;;;;5115835;28;20217;-59
2022/10/19 07:19:05;;;;;;;16.13;12.65;;;;;;;;;;5115132;28;20219;-59
2022/10/19 07:21:31;;;;;;;19.73;13.50;;;;;;;;;;5115916;28;20215;-59
2022/10/19 07:23:58;;;;;;;17.95;13.18;;;;;;;;;;5117905;28;20414;-59
2022/10/19 07:26:26;;;;;;;19.30;13.70;;;;;;;;;;5119737;28;20207;-58
2022/10/19 07:28:55;;;;;;;18.65;14.35;;;;;;;;;;5118209;28;20226;-58
2022/10/19 07:31:22;;;;;;;17.60;13.90;;;;;;;;;;5119238;28;20467;-59
2022/10/19 07:33:51;;;;;;;17.73;13.93;;;;;;;;;;5119247;28;20645;-58
2022/10/19 07:36:17;;;;;;;22.08;15.30;;;;;;;;;;5118690;28;20198;-59
2022/10/19 07:38:43;;;;;;;21.33;14.38;;;;;;;;;;5118566;28;20524;-58
2022/10/19 07:41:11;;;;;;;18.77;14.15;;;;;;;;;;5118871;28;20222;-58
2022/10/19 07:43:38;;;;;;;17.17;13.55;;;;;;;;;;5119001;28;20569;-58
2022/10/19 07:46:07;;;;;;;17.63;14.30;;;;;;;;;;5118783;28;20211;-58
2022/10/19 07:48:33;;;;;;;18.20;14.20;;;;;;;;;;5118181;28;20286;-59
2022/10/19 07:51:00;;;;;;;18.48;13.70;;;;;;;;;;5118925;28;20203;-58
2022/10/19 07:53:26;;;;;;;16.67;14.95;;;;;;;;;;5118481;28;20474;-59
2022/10/19 07:55:53;;;;;;;20.17;14.45;;;;;;;;;;5119229;28;20217;-59
2022/10/19 07:58:19;;;;;;;24.30;16.20;;;;;;;;;;5118168;27;20287;-59
2022/10/19 08:00:45;;;;;;;22.65;15.65;;;;;;;;;;5118836;28;20553;-59
2022/10/19 08:03:13;;;;;;;22.23;15.85;;;;;;;;;;5118949;28;20227;-59
2022/10/19 08:05:39;;;;;;;27.10;17.00;;;;;;;;;;5117378;28;20223;-58
2022/10/19 08:08:06;;;;;;;19.80;14.93;;;;;;;;;;5117256;28;20211;-58
2022/10/19 08:10:32;;;;;;;21.75;15.52;;;;;;;;;;5118170;28;20211;-59
2022/10/19 08:12:58;;;;;;;26.13;16.05;;;;;;;;;;5118038;28;20517;-59
2022/10/19 08:15:25;;;;;;;21.92;15.95;;;;;;;;;;5118639;28;20580;-59
2022/10/19 08:17:51;;;;;;;29.67;15.57;;;;;;;;;;5118416;28;20527;-59
2022/10/19 08:20:19;;;;;;;24.95;14.02;;;;;;;;;;5118035;28;20507;-59
2022/10/19 08:22:45;;;;;;;16.65;13.50;;;;;;;;;;5117706;28;20409;-58
2022/10/19 08:25:12;;;;;;;16.77;12.85;;;;;;;;;;5117843;28;20496;-58
2022/10/19 08:27:38;;;;;;;14.93;13.35;;;;;;;;;;5118177;28;20639;-58
2022/10/19 08:30:04;;;;;;;17.75;13.10;;;;;;;;;;5117890;28;20215;-58
2022/10/19 08:32:31;;;;;;;19.60;12.95;;;;;;;;;;5117958;28;20234;-58
2022/10/19 08:34:57;;;;;;;19.42;13.18;;;;;;;;;;5117997;28;20207;-59
2022/10/19 08:37:25;;;;;;;25.30;12.40;;;;;;;;;;5117870;28;20219;-58
2022/10/19 08:39:51;;;;;;;14.05;11.70;;;;;;;;;;5117384;28;20223;-59
2022/10/19 08:42:19;;;;;;;20.02;12.00;;;;;;;;;;5117741;27;20550;-58
2022/10/19 08:44:56;;;;;;;13.65;12.30;;;;;;;;;;5117745;28;20236;-58
2022/10/19 08:47:28;;;;;;;16.50;12.35;;;;;;;;;;5117429;28;20221;-58
2022/10/19 08:49:54;;;;;;;14.77;11.68;;;;;;;;;;5117659;28;20213;-57
2022/10/19 08:52:22;;;;;;;14.10;11.80;;;;;;;;;;5117272;28;20217;-58
2022/10/19 08:54:51;;;;;;;13.57;11.88;;;;;;;;;;5117043;28;20207;-58
2022/10/19 08:57:24;;;;;;;15.18;11.73;;;;;;;;;;5117372;28;20214;-58
2022/10/19 08:59:53;;;;;;;19.75;11.82;;;;;;;;;;5116182;28;20723;-59
2022/10/19 09:02:22;;;;;;;18.80;12.43;;;;;;;;;;5117154;28;20239;-58
2022/10/19 09:04:50;;;;;;;13.63;11.13;;;;;;;;;;5116810;28;20226;-57
2022/10/19 09:07:23;;;;;;;13.98;10.60;;;;;;;;;;5116521;28;20233;-60
2022/10/19 09:09:52;;;;;;;22.15;10.68;;;;;;;;;;5116146;28;20521;-58
2022/10/19 09:12:20;;;;;;;14.65;10.52;;;;;;;;;;5110871;27;20243;-57
2022/10/19 09:14:51;;;;;;;13.48;10.07;;;;;;;;;;5108709;28;20211;-57
2022/10/19 09:17:18;;;;;;;14.45;10.43;;;;;;;;;;5114409;28;20211;-57
2022/10/19 09:19:45;;;;;;;13.55;9.88;;;;;;;;;;5116307;28;20260;-57
2022/10/19 09:22:16;;;;;;;15.35;9.20;;;;;;;;;;5117261;28;20210;-58
2022/10/19 09:24:43;;;;;;;12.38;9.48;;;;;;;;;;5116961;28;20433;-58
2022/10/19 09:27:15;;;;;;;13.20;9.27;;;;;;;;;;5117328;28;20226;-58
2022/10/19 09:29:44;;;;;;;11.18;8.10;;;;;;;;;;5116084;28;20222;-59
2022/10/19 09:32:13;;;;;;;8.32;7.60;;;;;;;;;;5117141;28;20210;-59
2022/10/19 09:34:42;;;;;;;11.35;8.38;;;;;;;;;;5117218;28;20524;-58
2022/10/19 09:37:10;;;;;;;10.43;7.15;;;;;;;;;;5117219;28;20218;-58
2022/10/19 09:39:37;;;;;;;7.60;6.90;;;;;;;;;;5116229;28;20211;-57
2022/10/19 09:42:07;;;;;;;7.47;6.43;;;;;;;;;;5116555;28;20214;-58
2022/10/19 09:44:35;;;;;;;6.80;6.20;;;;;;;;;;5116856;28;20231;-59
2022/10/19 09:47:05;;;;;;;7.15;5.40;;;;;;;;;;5116281;28;20217;-59
2022/10/19 09:49:39;;;;;;;6.78;4.47;;;;;;;;;;5116566;28;20214;-59
2022/10/19 09:52:05;;;;;;;5.43;4.32;;;;;;;;;;5117326;28;20395;-59
2022/10/19 09:54:33;;;;;;;4.45;4.07;;;;;;;;;;5117880;28;20207;-57
2022/10/19 09:56:59;;;;;;;4.50;4.10;;;;;;;;;;5120068;27;20203;-59
2022/10/19 09:59:28;;;;;;;8.80;4.18;;;;;;;;;;5119504;28;20506;-60
2022/10/19 10:02:16;;;;;;;8.48;4.13;;;;;;;;;;5118301;28;20222;-60
2022/10/19 10:04:45;;;;;;;9.23;4.57;;;;;;;;;;5119010;28;20422;-58
2022/10/19 10:07:15;;;;;;;9.02;4.13;;;;;;;;;;5119851;28;20217;-58
2022/10/19 10:09:42;;;;;;;6.30;3.88;;;;;;;;;;5119167;28;20203;-56
2022/10/19 10:12:12;;;;;;;6.00;4.43;;;;;;;;;;5119579;28;20217;-59
2022/10/19 10:14:39;;;;;;;6.07;5.50;;;;;;;;;;5119040;28;20233;-59
2022/10/19 10:17:07;;;;;;;4.10;3.80;;;;;;;;;;5115868;27;20511;-58
2022/10/19 10:19:36;;;;;;;8.30;6.32;;;;;;;;;;5120005;28;20387;-59
2022/10/19 10:22:03;;;;;;;4.50;3.83;;;;;;;;;;5118924;28;20229;-59
2022/10/19 10:24:30;;;;;;;3.70;3.17;;;;;;;;;;5119344;28;20231;-58
2022/10/19 10:26:57;;;;;;;3.80;3.50;;;;;;;;;;5119276;28;20561;-59
2022/10/19 10:29:25;;;;;;;3.72;3.50;;;;;;;;;;5118434;28;20471;-59
2022/10/19 10:31:52;;;;;;;6.18;4.40;;;;;;;;;;5119590;28;20206;-59
2022/10/19 10:34:22;;;;;;;8.27;6.05;;;;;;;;;;5119494;28;20195;-59
2022/10/19 10:36:51;;;;;;;7.53;4.90;;;;;;;;;;5119822;27;20406;-59
2022/10/19 10:39:17;;;;;;;3.38;3.17;;;;;;;;;;5119426;28;20213;-59
2022/10/19 10:41:44;;;;;;;3.50;3.20;;;;;;;;;;5119611;28;20207;-59
2022/10/19 10:44:17;;;;;;;3.60;3.30;;;;;;;;;;5117663;28;20229;-59
2022/10/19 10:46:49;;;;;;;4.68;3.60;;;;;;;;;;5119903;28;20518;-59
2022/10/19 10:49:19;;;;;;;3.92;3.58;;;;;;;;;;5118805;28;20210;-59
2022/10/19 10:51:48;;;;;;;3.75;3.45;;;;;;;;;;5119025;28;20203;-59
2022/10/19 10:54:20;;;;;;;3.20;3.10;;;;;;;;;;5119050;27;20521;-60
2022/10/19 10:56:56;;;;;;;4.05;3.75;;;;;;;;;;5119569;28;20448;-59
2022/10/19 10:59:24;;;;;;;4.85;3.47;;;;;;;;;;5118587;28;20538;-59
2022/10/19 11:01:54;;;;;;;4.07;3.72;;;;;;;;;;5119805;28;20210;-60
2022/10/19 11:04:23;;;;;;;3.25;3.13;;;;;;;;;;5118989;28;20222;-58
2022/10/19 11:06:53;;;;;;;2.92;2.83;;;;;;;;;;5118850;28;20306;-59
2022/10/19 11:09:24;;;;;;;3.45;3.25;;;;;;;;;;5118929;28;20207;-59
2022/10/19 11:11:54;;;;;;;3.80;3.40;;;;;;;;;;5118422;28;20371;-58
2022/10/19 11:14:24;;;;;;;4.25;3.10;;;;;;;;;;5119641;28;20406;-59
2022/10/19 11:16:52;;;;;;;3.30;3.03;;;;;;;;;;5119012;28;20206;-59
2022/10/19 11:19:21;;;;;;;3.55;3.35;;;;;;;;;;5119163;28;20206;-59
2022/10/19 11:21:49;;;;;;;3.22;3.03;;;;;;;;;;5118688;28;20234;-58
2022/10/19 11:24:22;;;;;;;4.45;3.30;;;;;;;;;;5118265;28;20227;-58
2022/10/19 11:26:59;;;;;;;4.20;3.92;;;;;;;;;;5118504;28;20207;-59
2022/10/19 11:29:43;;;;;;;3.58;3.33;;;;;;;;;;5118124;28;20265;-59
2022/10/19 11:32:12;;;;;;;4.63;4.03;;;;;;;;;;5113686;28;20213;-59
2022/10/19 11:34:47;;;;;;;3.92;3.63;;;;;;;;;;5116862;28;20210;-58
2022/10/19 11:37:17;;;;;;;4.78;3.97;;;;;;;;;;5116011;28;20214;-58
2022/10/19 11:39:50;;;;;;;4.03;3.83;;;;;;;;;;5116858;28;20218;-59
2022/10/19 11:42:19;;;;;;;2.90;2.80;;;;;;;;;;5118311;28;20217;-59
2022/10/19 11:44:51;;;;;;;4.18;3.30;;;;;;;;;;5118934;28;20459;-59
2022/10/19 11:47:24;;;;;;;5.47;3.10;;;;;;;;;;5118862;28;20248;-59
2022/10/19 11:49:54;;;;;;;7.95;3.95;;;;;;;;;;5119210;28;20207;-58
2022/10/19 11:52:23;;;;;;;4.25;3.40;;;;;;;;;;5118642;28;20199;-58
2022/10/19 11:54:55;;;;;;;4.50;3.97;;;;;;;;;;5118278;28;20210;-59
2022/10/19 11:57:25;;;;;;;4.03;3.83;;;;;;;;;;5118503;28;20406;-59
2022/10/19 12:00:04;;;;;;;4.20;3.80;;;;;;;;;;5118051;28;20206;-59
2022/10/19 12:02:47;;;;;;;5.22;4.65;;;;;;;;;;5118404;28;20209;-60
2022/10/19 12:05:17;;;;;;;4.80;4.40;;;;;;;;;;5118460;28;20227;-60
2022/10/19 12:07:50;;;;;;;5.35;4.95;;;;;;;;;;5117945;28;20551;-60
2022/10/19 12:10:20;;;;;;;4.80;4.40;;;;;;;;;;5120786;28;20209;-61
2022/10/19 12:12:49;;;;;;;4.13;3.58;;;;;;;;;;5122489;28;20203;-60
2022/10/19 12:15:22;;;;;;;5.63;5.13;;;;;;;;;;5122408;28;20202;-61
2022/10/19 12:17:50;;;;;;;14.25;11.55;;;;;;;;;;5121986;28;20215;-61
2022/10/19 12:20:20;;;;;;;10.27;4.55;;;;;;;;;;5121872;27;20411;-60
2022/10/19 12:22:48;;;;;;;5.82;5.07;;;;;;;;;;5121553;28;20256;-60
2022/10/19 12:25:16;;;;;;;3.67;3.38;;;;;;;;;;5121345;28;20230;-59
2022/10/19 12:27:44;;;;;;;4.35;3.97;;;;;;;;;;5121456;28;20234;-59
2022/10/19 12:30:15;;;;;;;5.55;5.15;;;;;;;;;;5122583;28;20286;-59
2022/10/19 12:32:47;;;;;;;5.18;3.58;;;;;;;;;;5121208;28;20213;-59
2022/10/19 12:35:21;;;;;;;3.42;3.17;;;;;;;;;;5122557;28;20203;-59
2022/10/19 12:37:49;;;;;;;4.30;3.95;;;;;;;;;;5122038;27;20221;-59
2022/10/19 12:40:22;;;;;;;3.90;3.70;;;;;;;;;;5121702;28;20222;-58
2022/10/19 12:42:51;;;;;;;3.50;3.28;;;;;;;;;;5122240;28;20203;-58
2022/10/19 12:45:25;;;;;;;4.07;3.45;;;;;;;;;;5121339;28;20231;-59
2022/10/19 12:48:11;;;;;;;3.50;3.30;;;;;;;;;;5121785;28;20210;-58
2022/10/19 12:50:56;;;;;;;3.05;2.70;;;;;;;;;;5121973;27;20249;-59
2022/10/19 12:53:23;;;;;;;7.22;3.30;;;;;;;;;;5121274;28;20211;-60
2022/10/19 12:55:57;;;;;;;3.38;3.17;;;;;;;;;;5121869;28;20198;-59
2022/10/19 12:58:24;;;;;;;2.95;2.85;;;;;;;;;;5117083;28;20435;-58
2022/10/19 13:00:59;;;;;;;3.53;2.97;;;;;;;;;;5122207;28;20203;-59
2022/10/19 13:03:28;;;;;;;2.83;2.65;;;;;;;;;;5121104;27;20206;-59
2022/10/19 13:05:58;;;;;;;2.80;2.65;;;;;;;;;;5121508;28;20218;-58
2022/10/19 13:08:27;;;;;;;7.20;2.90;;;;;;;;;;5117905;28;20399;-59
2022/10/19 13:11:04;;;;;;;2.28;2.15;;;;;;;;;;5116833;28;20211;-59
2022/10/19 13:13:49;;;;;;;3.35;3.03;;;;;;;;;;5117753;28;20441;-60
2022/10/19 13:16:38;;;;;;;3.22;2.80;;;;;;;;;;5118044;27;20537;-59
2022/10/19 13:19:16;;;;;;;3.35;3.00;;;;;;;;;;5117827;28;20510;-59
2022/10/19 13:21:44;;;;;;;2.60;2.35;;;;;;;;;;5115582;28;20218;-59
2022/10/19 13:24:25;;;;;;;2.10;2.00;;;;;;;;;;5116937;28;20555;-59
2022/10/19 13:27:17;;;;;;;6.15;2.30;;;;;;;;;;5118068;28;20745;-58
2022/10/19 13:29:43;;;;;;;2.22;2.13;;;;;;;;;;5116654;27;20203;-58
2022/10/19 13:32:28;;;;;;;2.17;2.08;;;;;;;;;;5117333;28;20282;-59
2022/10/19 13:35:12;;;;;;;2.83;2.00;;;;;;;;;;5116891;28;20207;-59
2022/10/19 13:37:38;;;;;;;2.42;2.00;;;;;;;;;;5112052;28;20225;-59
2022/10/19 13:40:17;;;;;;;3.45;2.45;;;;;;;;;;5116440;28;20215;-59
2022/10/19 13:42:43;;;;;;;5.28;2.53;;;;;;;;;;5116746;27;20218;-61
2022/10/19 13:45:20;;;;;;;3.85;2.63;;;;;;;;;;5117018;28;20241;-59
2022/10/19 13:47:47;;;;;;;4.03;2.05;;;;;;;;;;5116074;28;20414;-59
2022/10/19 13:50:29;;;;;;;2.58;2.40;;;;;;;;;;5116685;28;20218;-58
2022/10/19 13:53:03;;;;;;;3.13;2.33;;;;;;;;;;5116777;28;20509;-59
2022/10/19 13:55:43;;;;;;;1.92;1.83;;;;;;;;;;5115972;27;20214;-59
2022/10/19 13:58:37;;;;;;;2.08;1.92;;;;;;;;;;5111972;28;20210;-60
2022/10/19 14:01:12;;;;;;;2.47;2.30;;;;;;;;;;5079625;28;20209;-62
2022/10/19 14:03:44;;;;;;;5.70;2.45;;;;;;;;;;5116162;28;20593;-62
2022/10/19 14:06:20;;;;;;;2.50;2.40;;;;;;;;;;5116278;28;20230;-62
2022/10/19 14:08:56;;;;;;;3.65;2.08;;;;;;;;;;5115628;28;20537;-62
2022/10/19 14:11:25;;;;;;;5.97;2.35;;;;;;;;;;5116053;28;20210;-62
2022/10/19 14:14:06;;;;;;;2.58;2.38;;;;;;;;;;5116321;28;20211;-59
2022/10/19 14:16:33;;;;;;;3.13;2.80;;;;;;;;;;5112931;28;20203;-59
2022/10/19 14:18:59;;;;;;;2.63;2.42;;;;;;;;;;5115210;28;20219;-59
2022/10/19 14:21:30;;;;;;;2.90;2.70;;;;;;;;;;5115618;28;20215;-60
2022/10/19 14:23:57;;;;;;;2.90;2.58;;;;;;;;;;5115305;28;20207;-59
2022/10/19 14:26:25;;;;;;;2.70;2.50;;;;;;;;;;5115651;28;20231;-59
2022/10/19 14:28:51;;;;;;;3.10;2.78;;;;;;;;;;5115284;28;20235;-59
2022/10/19 14:31:19;;;;;;;3.10;2.70;;;;;;;;;;5115762;27;20211;-59
2022/10/19 14:33:47;;;;;;;5.90;2.97;;;;;;;;;;5115988;28;20207;-59
2022/10/19 14:36:16;;;;;;;3.20;3.00;;;;;;;;;;5114961;28;20214;-59
2022/10/19 14:38:44;;;;;;;2.95;2.78;;;;;;;;;;5115221;28;20226;-59
2022/10/19 14:41:18;;;;;;;3.90;3.50;;;;;;;;;;5114671;28;20217;-59